sensor_id;sensor_type;location;lat;lon;timestamp;P1;durP1;ratioP1;P2;durP2;ratioP2
72728;SDS011;60843;52.062;4.508;2023-01-29T00:01:11;8.82;;;4.82;;
72728;SDS011;60843;52.062;4.508;2023-01-29T00:03:38;10.80;;;5.63;;
72728;SDS011;60843;52.062;4.508;2023-01-29T00:06:04;12.98;;;5.18;;
72728;SDS011;60843;52.062;4.508;2023-01-29T00:08:34;11.65;;;5.47;;
72728;SDS011;60843;52.062;4.508;2023-01-29T00:11:01;14.55;;;5.82;;
72728;SDS011;60843;52.062;4.508;2023-01-29T00:13:30;12.75;;;5.53;;
72728;SDS011;60843;52.062;4.508;2023-01-29T00:15:56;11.05;;;5.05;;
72728;SDS011;60843;52.062;4.508;2023-01-29T00:18:23;10.52;;;5.32;;
72728;SDS011;60843;52.062;4.508;2023-01-29T00:20:49;10.52;;;5.30;;
72728;SDS011;60843;52.062;4.508;2023-01-29T00:23:15;10.93;;;6.25;;
72728;SDS011;60843;52.062;4.508;2023-01-29T00:25:41;13.63;;;5.75;;
72728;SDS011;60843;52.062;4.508;2023-01-29T00:28:07;11.88;;;5.72;;
72728;SDS011;60843;52.062;4.508;2023-01-29T00:30:32;12.30;;;6.18;;
72728;SDS011;60843;52.062;4.508;2023-01-29T00:32:58;12.80;;;6.35;;
72728;SDS011;60843;52.062;4.508;2023-01-29T00:35:23;12.48;;;6.65;;
72728;SDS011;60843;52.062;4.508;2023-01-29T00:37:49;10.65;;;5.85;;
72728;SDS011;60843;52.062;4.508;2023-01-29T00:40:14;12.23;;;5.90;;
72728;SDS011;60843;52.062;4.508;2023-01-29T00:42:40;11.93;;;5.88;;
72728;SDS011;60843;52.062;4.508;2023-01-29T00:45:24;14.48;;;6.18;;
72728;SDS011;60843;52.062;4.508;2023-01-29T00:47:49;13.90;;;6.43;;
72728;SDS011;60843;52.062;4.508;2023-01-29T00:50:15;12.53;;;6.03;;
72728;SDS011;60843;52.062;4.508;2023-01-29T00:52:40;10.60;;;5.63;;
72728;SDS011;60843;52.062;4.508;2023-01-29T00:55:06;12.27;;;6.55;;
72728;SDS011;60843;52.062;4.508;2023-01-29T00:57:33;12.77;;;6.43;;
72728;SDS011;60843;52.062;4.508;2023-01-29T00:59:59;13.68;;;6.65;;
72728;SDS011;60843;52.062;4.508;2023-01-29T01:02:26;13.00;;;6.78;;
72728;SDS011;60843;52.062;4.508;2023-01-29T01:05:11;12.73;;;6.68;;
72728;SDS011;60843;52.062;4.508;2023-01-29T01:07:47;14.85;;;6.88;;
72728;SDS011;60843;52.062;4.508;2023-01-29T01:10:37;13.82;;;7.55;;
72728;SDS011;60843;52.062;4.508;2023-01-29T01:13:04;11.82;;;6.75;;
72728;SDS011;60843;52.062;4.508;2023-01-29T01:15:31;11.70;;;6.47;;
72728;SDS011;60843;52.062;4.508;2023-01-29T01:17:59;17.20;;;7.22;;
72728;SDS011;60843;52.062;4.508;2023-01-29T01:20:26;12.15;;;6.75;;
72728;SDS011;60843;52.062;4.508;2023-01-29T01:22:53;13.05;;;7.07;;
72728;SDS011;60843;52.062;4.508;2023-01-29T01:25:19;14.50;;;6.80;;
72728;SDS011;60843;52.062;4.508;2023-01-29T01:27:45;12.77;;;7.03;;
72728;SDS011;60843;52.062;4.508;2023-01-29T01:30:12;14.98;;;7.50;;
72728;SDS011;60843;52.062;4.508;2023-01-29T01:32:39;12.13;;;6.53;;
72728;SDS011;60843;52.062;4.508;2023-01-29T01:35:05;13.93;;;6.72;;
72728;SDS011;60843;52.062;4.508;2023-01-29T01:37:31;13.40;;;6.68;;
72728;SDS011;60843;52.062;4.508;2023-01-29T01:39:56;14.95;;;7.93;;
72728;SDS011;60843;52.062;4.508;2023-01-29T01:42:28;13.98;;;6.60;;
72728;SDS011;60843;52.062;4.508;2023-01-29T01:45:01;14.85;;;7.40;;
72728;SDS011;60843;52.062;4.508;2023-01-29T01:48:14;16.00;;;7.75;;
72728;SDS011;60843;52.062;4.508;2023-01-29T01:50:23;13.38;;;6.93;;
72728;SDS011;60843;52.062;4.508;2023-01-29T01:52:56;17.80;;;6.60;;
72728;SDS011;60843;52.062;4.508;2023-01-29T01:55:25;14.80;;;7.22;;
72728;SDS011;60843;52.062;4.508;2023-01-29T01:57:54;12.73;;;7.00;;
72728;SDS011;60843;52.062;4.508;2023-01-29T02:00:25;17.75;;;6.93;;
72728;SDS011;60843;52.062;4.508;2023-01-29T02:02:51;15.00;;;6.95;;
72728;SDS011;60843;52.062;4.508;2023-01-29T02:05:34;13.20;;;7.07;;
72728;SDS011;60843;52.062;4.508;2023-01-29T02:08:25;12.93;;;6.50;;
72728;SDS011;60843;52.062;4.508;2023-01-29T02:11:17;17.90;;;7.28;;
72728;SDS011;60843;52.062;4.508;2023-01-29T02:13:42;15.67;;;7.57;;
72728;SDS011;60843;52.062;4.508;2023-01-29T02:16:08;16.15;;;7.57;;
72728;SDS011;60843;52.062;4.508;2023-01-29T02:18:33;15.90;;;7.37;;
72728;SDS011;60843;52.062;4.508;2023-01-29T02:26:54;17.73;;;8.93;;
72728;SDS011;60843;52.062;4.508;2023-01-29T02:29:40;17.23;;;8.50;;
72728;SDS011;60843;52.062;4.508;2023-01-29T02:32:40;21.65;;;9.13;;
72728;SDS011;60843;52.062;4.508;2023-01-29T02:35:24;19.58;;;8.27;;
72728;SDS011;60843;52.062;4.508;2023-01-29T02:45:45;19.70;;;8.75;;
72728;SDS011;60843;52.062;4.508;2023-01-29T02:48:18;20.10;;;8.98;;
72728;SDS011;60843;52.062;4.508;2023-01-29T02:53:41;19.65;;;9.00;;
72728;SDS011;60843;52.062;4.508;2023-01-29T02:56:29;20.42;;;9.05;;
72728;SDS011;60843;52.062;4.508;2023-01-29T02:59:06;19.77;;;9.93;;
72728;SDS011;60843;52.062;4.508;2023-01-29T03:01:39;19.65;;;9.60;;
72728;SDS011;60843;52.062;4.508;2023-01-29T03:04:13;16.35;;;8.80;;
72728;SDS011;60843;52.062;4.508;2023-01-29T03:06:47;20.33;;;8.85;;
72728;SDS011;60843;52.062;4.508;2023-01-29T03:09:23;19.15;;;9.07;;
72728;SDS011;60843;52.062;4.508;2023-01-29T03:11:57;17.58;;;8.32;;
72728;SDS011;60843;52.062;4.508;2023-01-29T03:14:42;17.92;;;8.73;;
72728;SDS011;60843;52.062;4.508;2023-01-29T03:17:29;16.48;;;8.43;;
72728;SDS011;60843;52.062;4.508;2023-01-29T03:19:58;22.35;;;9.35;;
72728;SDS011;60843;52.062;4.508;2023-01-29T03:22:23;18.80;;;9.35;;
72728;SDS011;60843;52.062;4.508;2023-01-29T03:24:51;18.63;;;7.93;;
72728;SDS011;60843;52.062;4.508;2023-01-29T03:27:58;18.40;;;8.43;;
72728;SDS011;60843;52.062;4.508;2023-01-29T03:30:47;17.48;;;8.10;;
72728;SDS011;60843;52.062;4.508;2023-01-29T03:33:47;18.63;;;8.13;;
72728;SDS011;60843;52.062;4.508;2023-01-29T03:36:22;17.23;;;8.82;;
72728;SDS011;60843;52.062;4.508;2023-01-29T03:39:04;18.45;;;9.05;;
72728;SDS011;60843;52.062;4.508;2023-01-29T03:41:34;16.73;;;8.05;;
72728;SDS011;60843;52.062;4.508;2023-01-29T03:44:06;17.63;;;7.75;;
72728;SDS011;60843;52.062;4.508;2023-01-29T03:46:39;19.08;;;9.07;;
72728;SDS011;60843;52.062;4.508;2023-01-29T03:49:20;18.88;;;8.77;;
72728;SDS011;60843;52.062;4.508;2023-01-29T03:57:30;16.55;;;8.73;;
72728;SDS011;60843;52.062;4.508;2023-01-29T04:02:35;17.55;;;8.10;;
72728;SDS011;60843;52.062;4.508;2023-01-29T04:05:12;21.67;;;8.57;;
72728;SDS011;60843;52.062;4.508;2023-01-29T04:07:41;17.15;;;7.28;;
72728;SDS011;60843;52.062;4.508;2023-01-29T04:10:09;17.67;;;8.40;;
72728;SDS011;60843;52.062;4.508;2023-01-29T04:15:04;15.88;;;7.20;;
72728;SDS011;60843;52.062;4.508;2023-01-29T04:17:34;16.63;;;7.72;;
72728;SDS011;60843;52.062;4.508;2023-01-29T04:20:02;16.00;;;7.22;;
72728;SDS011;60843;52.062;4.508;2023-01-29T04:22:32;18.48;;;7.85;;
72728;SDS011;60843;52.062;4.508;2023-01-29T04:24:59;14.77;;;7.18;;
72728;SDS011;60843;52.062;4.508;2023-01-29T04:27:41;16.90;;;7.80;;
72728;SDS011;60843;52.062;4.508;2023-01-29T04:35:45;15.18;;;8.25;;
72728;SDS011;60843;52.062;4.508;2023-01-29T04:49:19;17.73;;;8.98;;
72728;SDS011;60843;52.062;4.508;2023-01-29T04:52:05;18.95;;;8.98;;
72728;SDS011;60843;52.062;4.508;2023-01-29T04:57:14;20.67;;;8.87;;
72728;SDS011;60843;52.062;4.508;2023-01-29T04:59:49;18.42;;;8.73;;
72728;SDS011;60843;52.062;4.508;2023-01-29T05:02:17;17.00;;;8.05;;
72728;SDS011;60843;52.062;4.508;2023-01-29T05:04:43;14.98;;;8.15;;
72728;SDS011;60843;52.062;4.508;2023-01-29T05:07:11;16.38;;;8.60;;
72728;SDS011;60843;52.062;4.508;2023-01-29T05:09:38;14.13;;;8.15;;
72728;SDS011;60843;52.062;4.508;2023-01-29T05:12:07;17.38;;;8.57;;
72728;SDS011;60843;52.062;4.508;2023-01-29T05:14:34;15.75;;;8.90;;
72728;SDS011;60843;52.062;4.508;2023-01-29T05:17:01;13.93;;;7.53;;
72728;SDS011;60843;52.062;4.508;2023-01-29T05:19:28;21.15;;;9.75;;
72728;SDS011;60843;52.062;4.508;2023-01-29T05:21:53;15.10;;;8.15;;
72728;SDS011;60843;52.062;4.508;2023-01-29T05:24:23;14.13;;;7.60;;
72728;SDS011;60843;52.062;4.508;2023-01-29T05:26:50;14.68;;;8.13;;
72728;SDS011;60843;52.062;4.508;2023-01-29T05:29:35;14.00;;;7.93;;
72728;SDS011;60843;52.062;4.508;2023-01-29T05:32:00;16.75;;;7.90;;
72728;SDS011;60843;52.062;4.508;2023-01-29T05:34:26;14.93;;;8.20;;
72728;SDS011;60843;52.062;4.508;2023-01-29T05:36:51;14.02;;;8.48;;
72728;SDS011;60843;52.062;4.508;2023-01-29T05:39:17;13.27;;;7.95;;
72728;SDS011;60843;52.062;4.508;2023-01-29T05:41:43;20.23;;;8.63;;
72728;SDS011;60843;52.062;4.508;2023-01-29T05:44:09;16.00;;;8.27;;
72728;SDS011;60843;52.062;4.508;2023-01-29T05:46:34;15.73;;;8.57;;
72728;SDS011;60843;52.062;4.508;2023-01-29T05:49:00;13.45;;;7.55;;
72728;SDS011;60843;52.062;4.508;2023-01-29T05:51:25;17.60;;;8.37;;
72728;SDS011;60843;52.062;4.508;2023-01-29T05:53:51;15.75;;;8.55;;
72728;SDS011;60843;52.062;4.508;2023-01-29T05:56:16;17.80;;;8.43;;
72728;SDS011;60843;52.062;4.508;2023-01-29T05:58:42;15.65;;;8.57;;
72728;SDS011;60843;52.062;4.508;2023-01-29T06:01:08;15.43;;;8.63;;
72728;SDS011;60843;52.062;4.508;2023-01-29T06:03:35;16.05;;;8.30;;
72728;SDS011;60843;52.062;4.508;2023-01-29T06:06:00;19.27;;;8.83;;
72728;SDS011;60843;52.062;4.508;2023-01-29T06:08:26;15.05;;;8.13;;
72728;SDS011;60843;52.062;4.508;2023-01-29T06:10:53;20.30;;;8.50;;
72728;SDS011;60843;52.062;4.508;2023-01-29T06:13:18;15.85;;;8.50;;
72728;SDS011;60843;52.062;4.508;2023-01-29T06:15:45;17.10;;;8.40;;
72728;SDS011;60843;52.062;4.508;2023-01-29T21:27:27;11.95;;;4.97;;
72728;SDS011;60843;52.062;4.508;2023-01-29T21:29:53;16.10;;;5.20;;
72728;SDS011;60843;52.062;4.508;2023-01-29T21:32:18;15.35;;;5.68;;
72728;SDS011;60843;52.062;4.508;2023-01-29T21:34:44;11.43;;;4.45;;
72728;SDS011;60843;52.062;4.508;2023-01-29T21:37:10;12.50;;;4.60;;
72728;SDS011;60843;52.062;4.508;2023-01-29T21:39:35;9.85;;;2.95;;
72728;SDS011;60843;52.062;4.508;2023-01-29T21:42:01;10.20;;;3.58;;
72728;SDS011;60843;52.062;4.508;2023-01-29T21:44:47;9.82;;;3.58;;
72728;SDS011;60843;52.062;4.508;2023-01-29T21:47:12;10.65;;;3.13;;
72728;SDS011;60843;52.062;4.508;2023-01-29T21:49:41;7.60;;;3.88;;
72728;SDS011;60843;52.062;4.508;2023-01-29T21:52:08;10.23;;;3.10;;
72728;SDS011;60843;52.062;4.508;2023-01-29T21:54:35;7.18;;;3.20;;
72728;SDS011;60843;52.062;4.508;2023-01-29T21:57:01;6.28;;;2.47;;
72728;SDS011;60843;52.062;4.508;2023-01-29T21:59:31;7.55;;;2.70;;
72728;SDS011;60843;52.062;4.508;2023-01-29T22:01:57;10.90;;;2.60;;
72728;SDS011;60843;52.062;4.508;2023-01-29T22:04:23;8.40;;;2.00;;
72728;SDS011;60843;52.062;4.508;2023-01-29T22:06:49;8.27;;;2.47;;
72728;SDS011;60843;52.062;4.508;2023-01-29T22:09:15;10.23;;;2.90;;
72728;SDS011;60843;52.062;4.508;2023-01-29T22:11:40;11.23;;;2.35;;
72728;SDS011;60843;52.062;4.508;2023-01-29T22:14:06;3.72;;;1.90;;
72728;SDS011;60843;52.062;4.508;2023-01-29T22:16:32;6.50;;;2.88;;
72728;SDS011;60843;52.062;4.508;2023-01-29T22:18:58;2.90;;;1.27;;
72728;SDS011;60843;52.062;4.508;2023-01-29T22:21:23;7.05;;;2.72;;
72728;SDS011;60843;52.062;4.508;2023-01-29T22:23:49;10.27;;;2.85;;
72728;SDS011;60843;52.062;4.508;2023-01-29T22:26:14;11.63;;;2.35;;
72728;SDS011;60843;52.062;4.508;2023-01-29T22:28:40;2.58;;;1.48;;
72728;SDS011;60843;52.062;4.508;2023-01-29T22:31:05;1.77;;;1.13;;
72728;SDS011;60843;52.062;4.508;2023-01-29T22:33:31;9.23;;;2.42;;
72728;SDS011;60843;52.062;4.508;2023-01-29T22:35:57;7.45;;;2.22;;
72728;SDS011;60843;52.062;4.508;2023-01-29T22:38:23;6.70;;;2.58;;
72728;SDS011;60843;52.062;4.508;2023-01-29T22:40:52;7.53;;;2.50;;
72728;SDS011;60843;52.062;4.508;2023-01-29T22:43:19;10.23;;;2.65;;
72728;SDS011;60843;52.062;4.508;2023-01-29T22:45:44;8.65;;;1.88;;
72728;SDS011;60843;52.062;4.508;2023-01-29T22:48:10;8.02;;;2.75;;
72728;SDS011;60843;52.062;4.508;2023-01-29T22:50:36;7.32;;;2.40;;
72728;SDS011;60843;52.062;4.508;2023-01-29T22:53:02;9.85;;;2.95;;
72728;SDS011;60843;52.062;4.508;2023-01-29T22:55:27;7.55;;;2.83;;
72728;SDS011;60843;52.062;4.508;2023-01-29T22:57:53;5.13;;;1.90;;
72728;SDS011;60843;52.062;4.508;2023-01-29T23:00:18;7.50;;;2.47;;
72728;SDS011;60843;52.062;4.508;2023-01-29T23:02:48;10.75;;;3.22;;
72728;SDS011;60843;52.062;4.508;2023-01-29T23:05:13;10.02;;;3.20;;
72728;SDS011;60843;52.062;4.508;2023-01-29T23:07:39;5.10;;;2.25;;
72728;SDS011;60843;52.062;4.508;2023-01-29T23:10:05;7.80;;;2.92;;
72728;SDS011;60843;52.062;4.508;2023-01-29T23:12:31;4.00;;;1.90;;
72728;SDS011;60843;52.062;4.508;2023-01-29T23:14:56;8.75;;;3.00;;
72728;SDS011;60843;52.062;4.508;2023-01-29T23:17:21;9.60;;;2.47;;
72728;SDS011;60843;52.062;4.508;2023-01-29T23:19:47;6.75;;;2.38;;
72728;SDS011;60843;52.062;4.508;2023-01-29T23:22:13;7.13;;;2.42;;
72728;SDS011;60843;52.062;4.508;2023-01-29T23:24:38;7.18;;;3.05;;
72728;SDS011;60843;52.062;4.508;2023-01-29T23:27:03;8.00;;;2.83;;
72728;SDS011;60843;52.062;4.508;2023-01-29T23:32:03;3.07;;;1.93;;
72728;SDS011;60843;52.062;4.508;2023-01-29T23:34:30;2.72;;;1.60;;
72728;SDS011;60843;52.062;4.508;2023-01-29T23:36:56;8.25;;;3.05;;
72728;SDS011;60843;52.062;4.508;2023-01-29T23:39:21;4.47;;;1.75;;
72728;SDS011;60843;52.062;4.508;2023-01-29T23:41:47;1.67;;;0.98;;
72728;SDS011;60843;52.062;4.508;2023-01-29T23:44:12;9.85;;;4.22;;
72728;SDS011;60843;52.062;4.508;2023-01-29T23:46:38;10.68;;;1.98;;
72728;SDS011;60843;52.062;4.508;2023-01-29T23:49:04;7.53;;;3.00;;
72728;SDS011;60843;52.062;4.508;2023-01-29T23:51:29;1.85;;;0.80;;
72728;SDS011;60843;52.062;4.508;2023-01-29T23:53:55;7.35;;;2.72;;
72728;SDS011;60843;52.062;4.508;2023-01-29T23:56:20;8.50;;;2.55;;
72728;SDS011;60843;52.062;4.508;2023-01-29T23:58:46;10.30;;;2.50;;
